Météo Cheval Rigon

 

Relevés d'aujourd'hui



 

24/11/17
Time         Wind Dir   Wind Spd  Wind Gust   Humidity       Temp   Tot Rain Wind Chill  Dew Point   Barom SL Humidity R Temp Out R Tot Rain R   WindCh R   Dew Pt R SL Barom R Temp Out H Temp Out L  DailyRain   HourRain   24HrRain   RainRate  MonthRain
                          km/hr      km/hr          %         C         mm         C         C         mb       %/hr      C/hr      mm/hr      C/hr      C/hr      mm/hr         C         C         mm         mm         mm      mm/hr         mm
0:00              179          5         10         72       11.7     773.80       11.7        6.8    1014.88       -0.2      -0.03      0.000       0.05      -0.06     -0.027       11.7       11.7       0.00       0.00       0.00      0.000      50.80
0:15              267          0         13         72       11.8     773.80       11.8        6.9    1014.81       -0.1       0.03      0.000       0.11       0.00     -0.046       11.8       11.7       0.00       0.00       0.00      0.000      50.80
0:30              174         13         19         72       11.9     773.80       10.5        7.0    1014.64       -0.1       0.13      0.000      -1.16       0.10     -0.197       11.9       11.7       0.00       0.00       0.00      0.000      50.80
0:45              140          6         14         72       11.9     773.80       11.6        7.1    1014.47       -0.1       0.15      0.000      -0.04       0.13     -0.307       11.9       11.7       0.00       0.00       0.00      0.000      50.80
1:00              173          2         14         72       11.8     773.80       11.8        7.0    1014.27       -0.0       0.02      0.000       0.17       0.02     -0.408       11.9       11.7       0.00       0.00       0.00      0.000      50.80
1:15              206          5         16         71       11.9     773.80       11.9        6.8    1014.10       -0.9       0.06      0.000       0.22      -0.12     -0.459       11.9       11.7       0.00       0.00       0.00      0.000      50.80
1:30              173          0         14         71       11.9     773.80       11.9        6.9    1014.03       -0.7       0.09      0.000       0.25      -0.05     -0.409       11.9       11.7       0.00       0.00       0.00      0.000      50.80
1:45              265          2         16         71       12.0     773.80       12.0        6.9    1014.20       -0.5       0.12      0.000       0.27       0.01     -0.169       12.0       11.7       0.00       0.00       0.00      0.000      50.80
2:00              175          2         14         70       12.2     773.80       12.2        6.9    1014.13       -1.3       0.24      0.000       0.40      -0.03     -0.184       12.2       11.7       0.00       0.00       0.00      0.000      50.80
2:15              163          5         13         70       12.2     773.80       12.2        6.9    1014.16       -1.0       0.25      0.000       0.39       0.03     -0.104       12.2       11.7       0.00       0.00       0.00      0.000      50.80
2:30              204          0         11         69       12.3     773.80       12.3        6.8    1014.40       -1.7       0.24      0.000       0.38      -0.12      0.144       12.3       11.7       0.00       0.00       0.00      0.000      50.80
2:45              217          0         11         69       12.3     773.80       12.3        6.8    1014.40       -1.3       0.18      0.000       0.31      -0.10      0.103       12.3       11.7       0.00       0.00       0.00      0.000      50.80
3:00              153          6         14         69       12.3     773.80       12.1        6.8    1014.27       -1.0       0.20      0.000       0.07      -0.03     -0.038       12.3       11.7       0.00       0.00       0.00      0.000      50.80
3:15              171          3         13         69       12.3     773.80       12.3        6.8    1014.30       -0.8       0.16      0.000       0.31      -0.01      0.002       12.3       11.7       0.00       0.00       0.00      0.000      50.80
3:30              213          6         16         69       12.2     773.80       11.9        6.7    1014.27       -0.6      -0.03      0.000      -0.18      -0.16     -0.013       12.3       11.7       0.00       0.00       0.00      0.000      50.80
3:45              221          0         10         70       12.2     773.80       12.2        6.9    1014.10        0.3      -0.03      0.000       0.11       0.04     -0.143       12.3       11.7       0.00       0.00       0.00      0.000      50.80
4:00              150          3         11         70       12.2     773.80       12.2        6.9    1014.27        0.3      -0.02      0.000       0.10       0.03      0.043       12.3       11.7       0.00       0.00       0.00      0.000      50.80
4:15              180         10         13         69       12.3     773.80       11.5        6.8    1014.23       -0.8       0.13      0.000      -0.58      -0.04      0.002       12.3       11.7       0.00       0.00       0.00      0.000      50.80
4:30              173          2         13         69       12.3     773.80       12.3        6.8    1014.20       -0.7       0.11      0.000       0.26      -0.03     -0.038       12.3       11.7       0.00       0.00       0.00      0.000      50.80
4:45              177          5         16         69       12.4     773.80       12.4        6.9    1014.10       -0.5       0.13      0.000       0.29       0.02     -0.116       12.4       11.7       0.00       0.00       0.00      0.000      50.80
5:00              170          5         18         69       12.3     773.80       12.3        6.8    1014.06       -0.4       0.01      0.000       0.15      -0.08     -0.111       12.4       11.7       0.00       0.00       0.00      0.000      50.80
5:15              169          0         13         69       12.4     773.80       12.4        6.9    1014.03       -0.3       0.16      0.000       0.32       0.08     -0.109       12.4       11.7       0.00       0.00       0.00      0.000      50.80
5:30              200          3         14         69       12.5     773.80       12.5        7.0    1014.03       -0.2       0.17      0.000       0.36       0.11     -0.082       12.5       11.7       0.00       0.00       0.00      0.000      50.80
5:45              206         10         14         69       12.4     773.80       11.6        6.9    1013.96       -0.2       0.09      0.000      -0.56       0.05     -0.119       12.5       11.7       0.00       0.00       0.00      0.000      50.80
6:00              203          5         16         69       12.4     773.80       12.4        6.9    1013.83       -0.1       0.08      0.000       0.27       0.04     -0.204       12.5       11.7       0.00       0.00       0.00      0.000      50.80
6:15              177          2         14         69       12.4     773.80       12.4        6.9    1013.83       -0.1       0.02      0.000       0.21      -0.01     -0.171       12.5       11.7       0.00       0.00       0.00      0.000      50.80
6:30              178          0         11         70       12.3     773.80       12.3        7.0    1013.93        0.8      -0.04      0.000       0.15       0.14     -0.044       12.5       11.7       0.00       0.00       0.00      0.000      50.80
6:45              161          5         14         70       12.3     773.80       12.3        7.0    1013.86        0.7      -0.03      0.000       0.13       0.11     -0.089       12.5       11.7       0.00       0.00       0.00      0.000      50.80
7:00              225          3         13         70       12.3     773.80       12.3        7.0    1013.59        0.5      -0.07      0.000       0.08       0.04     -0.319       12.5       11.7       0.00       0.00       0.00      0.000      50.80
7:15              162          5         11         70       12.3     773.80       12.3        7.0    1013.42        0.4      -0.01      0.000       0.15       0.08     -0.404       12.5       11.7       0.00       0.00       0.00      0.000      50.80
7:30              166          2         16         69       12.6     773.80       12.6        7.0    1013.35       -0.5       0.19      0.000       0.35       0.07     -0.394       12.6       11.7       0.00       0.00       0.00      0.000      50.80
7:45              195          3         16         69       12.6     773.80       12.6        7.1    1013.49       -0.4       0.19      0.000       0.35       0.10     -0.191       12.6       11.7       0.00       0.00       0.00      0.000      50.80
8:00              167          3         10         68       12.8     773.80       12.8        7.0    1013.42       -1.2       0.30      0.000       0.43       0.02     -0.206       12.8       11.7       0.00       0.00       0.00      0.000      50.80
8:15              173          8         14         68       12.9     773.80       12.5        7.2    1013.42       -1.0       0.39      0.000       0.07       0.16     -0.162       12.9       11.7       0.00       0.00       0.00      0.000      50.80
8:30              164          5         14         67       13.1     773.80       13.1        7.1    1013.55       -1.8       0.45      0.000       0.62       0.06     -0.010       13.1       11.7       0.00       0.00       0.00      0.000      50.80
8:45              121          2         14         67       13.2     773.80       13.2        7.2    1013.99       -1.4       0.45      0.000       0.63       0.14      0.393       13.3       11.7       0.00       0.00       0.00      0.000      50.80
9:00              210          8         11         67       13.3     773.80       12.9        7.3    1014.44       -1.1       0.39      0.000       0.13       0.15      0.677       13.3       11.7       0.00       0.00       0.00      0.000      50.80
9:15              169          0         11         67       13.4     773.80       13.4        7.4    1014.54       -0.8       0.40      0.000       0.54       0.20      0.613       13.4       11.7       0.00       0.00       0.00      0.000      50.80
9:30              194          0         11         66       13.6     773.80       13.6        7.3    1014.44       -1.6       0.46      0.000       0.59       0.09      0.384       13.6       11.7       0.00       0.00       0.00      0.000      50.80
9:45              159          6         14         66       13.7     773.80       13.6        7.4    1014.54       -1.3       0.45      0.000       0.53       0.16      0.388       13.7       11.7       0.00       0.00       0.00      0.000      50.80
10:00             235          8         14         67       13.7     773.80       13.4        7.7    1014.81       -0.0       0.40      0.000       0.19       0.38      0.549       13.7       11.7       0.00       0.00       0.00      0.000      50.80
10:15             203          2         13         67       13.7     773.80       13.7        7.7    1015.08       -0.0       0.31      0.000       0.44       0.30      0.675       13.7       11.7       0.00       0.00       0.00      0.000      50.80
10:30             226          2         11         67       13.7     773.80       13.7        7.7    1015.25       -0.0       0.24      0.000       0.36       0.23      0.679       13.8       11.7       0.00       0.00       0.00      0.000      50.80
10:45             228          0         11         66       13.8     773.80       13.8        7.5    1015.45       -0.9       0.24      0.000       0.35       0.03      0.708       13.8       11.7       0.00       0.00       0.00      0.000      50.80
11:00             192          3         14         67       13.7     773.80       13.7        7.7    1015.42        0.1       0.14      0.000       0.25       0.16      0.518       13.8       11.7       0.00       0.00       0.00      0.000      50.80
11:15             228          6         11         66       13.8     773.80       13.7        7.5    1015.38       -0.9       0.16      0.000       0.22      -0.04      0.376       13.8       11.7       0.00       0.00       0.00      0.000      50.80
11:30             286          5         10         67       13.8     773.80       13.8        7.8    1015.65        0.1       0.17      0.000       0.25       0.19      0.530       13.9       11.7       0.00       0.00       0.00      0.000      50.80
11:45             226          3         11         68       13.9     773.80       13.9        8.1    1015.52        1.1       0.24      0.000       0.32       0.47      0.307       13.9       11.7       0.00       0.00       0.00      0.000      50.80
12:00             159          3         16         67       14.3     773.80       14.3        8.3    1015.42        0.0       0.51      0.000       0.60       0.49      0.149       14.4       11.7       0.00       0.00       0.00      0.000      50.80
12:15             220         10         13         67       14.3     773.80       13.8        8.2    1015.25        0.1       0.35      0.000      -0.04       0.35     -0.031       14.4       11.7       0.00       0.00       0.00      0.000      50.80
12:30             208         13         14         67       14.2     773.80       13.3        8.2    1015.18        0.2       0.22      0.000      -0.56       0.25     -0.084       14.4       11.7       0.00       0.00       0.00      0.000      50.80
12:45             212          2         19         68       13.8     773.80       13.8        8.0    1015.08        1.0      -0.22      0.000      -0.10       0.01     -0.148       14.4       11.7       0.00       0.00       0.00      0.000      50.80
13:00             236          0         14         72       13.5     773.80       13.5        8.6    1015.32        4.3      -0.43      0.000      -0.32       0.49      0.089       14.4       11.7       0.00       0.00       0.00      0.000      50.80
13:15             238          0          8         75       13.0     773.80       13.0        8.7    1015.18        5.9      -0.77      0.000      -0.68       0.47     -0.035       14.4       11.7       0.00       0.00       0.00      0.000      50.80
13:30             203          0          6         78       12.7     773.80       12.7        9.0    1015.15        7.2      -0.84      0.000      -0.77       0.64     -0.054       14.4       11.7       0.00       0.00       0.00      0.000      50.80
13:45             223          2          6         82       12.3     774.00       12.3        9.3    1015.15        9.2      -1.05      0.171      -0.99       0.78     -0.030       14.4       11.7       0.20       0.20       0.20      0.000      51.00
14:00             163          0          8         85       11.8     774.40       11.8        9.4    1015.04        9.9      -1.20      0.465      -1.15       0.72     -0.101       14.4       11.7       0.60       0.60       0.60      1.400      51.40
14:15             205          0          5         86       11.7     774.60       11.7        9.4    1015.01        8.6      -1.08      0.547      -1.05       0.57     -0.114       14.4       11.7       0.80       0.80       0.80      0.000      51.60
14:30             175          5          5         86       11.6     774.60       11.6        9.3    1014.74        6.7      -0.95      0.427      -0.92       0.34     -0.317       14.4       11.6       0.80       0.80       0.80      0.000      51.60
14:45             175          0          5         87       11.6     774.60       11.6        9.5    1014.84        6.0      -0.74      0.332      -0.72       0.40     -0.161       14.4       11.6       0.80       0.80       0.80      0.000      51.60
15:00             175          0          2         89       11.5     774.60       11.5        9.8    1014.98        6.5      -0.62      0.259      -0.61       0.57     -0.009       14.4       11.4       0.80       0.60       0.80      0.000      51.60

 


 

 

 

Retour accueil